Richmond (North Yorkshire), United Kingdom
Current Conditions -  °F | °C
As of 1:50 AM on Tuesday 25 Nov 2014 (Local Time) from EGXE Reporting Station
Haze Haze  
Wind Chill: 31°   Ceiling: 17000
Heat Index: 36°   Visibility: 4mi
Dew Point: 36°   Wind: 6mph
Humidity: 100%   Direction: 190°S
Pressure: 30.27"   Gusts: NA
Location:  54.41°N, 1.74°W
Report Text: EGXE 250150Z AUTO 19005KT 7000 BR OVC170/// 02/02 Q1025
Loading
Personal Weather Stations






























Interactive Weather Map New forecast layout! Learn more

10-Day Weather Forecast

Advertisements
Track Severe Weather on mobile